• Join FlightAware (Why Join?)
  • Login
  • US Flag 
04:42PM EDT


 

Airport Tracker/Info


-or-


 

Live Flight TrackerFlight Track Log ✈ USC105 ✈ 02-May-2013 ✈ KBKL - KYIP

Flight Track Log - Related Links

Times and Time Zones

All times are in EDT time to prevent confusion due to time zone crossing. See the USC105 flight status page for this flight to view local times or setup timezone preferences in your user account.

Time Position Orientation Groundspeed Altitude Reporting Facility
EDT Latitude Longitude Course Direction KTS MPH feet Rate Location/Type
11:14PM 41.5628 -81.6847 344° North 159 183 1,600  Level Cleveland Center
11:15PM 41.6064 -81.7133 334° Northwest 159 183 2,700 960 Climbing Cleveland Center
11:16PM 41.6372 -81.7472 321° Northwest 154 177 3,600 840 Climbing Cleveland Center
11:17PM 41.6492 -81.8003 287° West 142 163 4,500 900 Climbing Cleveland Center
11:18PM 41.6592 -81.8478 286° West 142 163 5,500 720 Climbing Cleveland Center
11:19PM 41.6708 -81.9008 286° West 144 166 6,000 180 Climbing Cleveland Center
11:20PM 41.6869 -81.9622 289° West 177 204 5,900  Descending Cleveland Center
11:21PM 41.7008 -82.0208 288° West 173 199 6,000  Climbing Cleveland Center
11:22PM 41.7167 -82.0881 288° West 184 212 6,000  Level Cleveland Center
11:23PM 41.7322 -82.1581 287° West 181 208 6,000  Level Cleveland Center
11:24PM 41.7481 -82.2225 288° West 185 213 6,000  Level Cleveland Center
11:25PM 41.7639 -82.2897 288° West 188 216 6,000  Level Cleveland Center
11:26PM 41.7775 -82.3567 285° West 189 217 6,000  Level Cleveland Center
11:27PM 41.7933 -82.4103 292° West 190 219 6,000  Level Cleveland Center
11:28PM 41.7969 -82.4353 281° West 190 219 6,000  Level Cleveland Center
11:29PM 41.8167 -82.5139 289° West 191 220 6,000  Level Cleveland Center
11:30PM 41.8300 -82.5839 284° West 191 220 6,000  Level Cleveland Center
11:31PM 41.8558 -82.6572 295° West 194 223 6,000  Level Cleveland Center
11:32PM 41.8794 -82.7278 294° West 193 222 6,000  Level Cleveland Center
11:33PM 41.8972 -82.7842 293° West 194 223 6,000  Level Cleveland Center
11:34PM 41.9208 -82.8547 294° West 193 222 6,000  Level Cleveland Center
11:35PM 41.9444 -82.9197 296° West 194 223 6,000 -240 Level Cleveland Center
11:36PM 41.9681 -82.9850 296° West 196 226 5,600 -480 Descending Cleveland Center
11:37PM 41.9894 -83.0583 291° West 209 241 5,100 -480 Descending Cleveland Center
11:38PM 42.0128 -83.1319 293° West 209 241 4,700 -540 Descending Cleveland Center
11:39PM 42.0386 -83.1944 299° West 204 235 4,100 -600 Descending Cleveland Center
11:40PM 42.0619 -83.2681 293° West 207 238 3,600 -540 Descending Cleveland Center
11:41PM 42.0850 -83.3503 291° West 202 232 3,000 -300 Descending Cleveland Center
11:42PM 42.1044 -83.4072 295° West 179 206 3,000 -300 Level Cleveland Center
11:43PM 42.1281 -83.4697 297° West 191 220 2,500 -360 Descending Cleveland Center
11:44PM 42.1558 -83.5186 307° West 183 211 2,400 -180 Descending Cleveland Center
11:45PM 42.1881 -83.5622 315° West 161 185 2,200 -600 Descending Cleveland Center
11:46PM 42.2217 -83.5553 North 113 130 1,300 -900 Descending Cleveland Center
11:48PM 42.2333 -83.5167 270° West  Level FlightAware Approximate
11:55PM 42.2393 -83.5310 270° West  Level Estimated